Time;durP1;ratioP1;P1;durP2;ratioP2;P2;SDS_P1;SDS_P2;PMS_P1;PMS_P2;Temp;Humidity;BMP_temperature;BMP_pressure;BME280_temperature;BME280_humidity;BME280_pressure;Samples;Min_cycle;Max_cycle;Signal;HPM_P1;HPM_P2
2022/08/25 00:00:43;;;;;;;22.45;9.18;;;;;;;-148.16;100.00;58328.31;5043763;28;20037;-57
2022/08/25 00:03:28;;;;;;;10.18;6.07;;;;;;;-148.16;100.00;58328.31;5040401;28;20098;-55
2022/08/25 00:06:14;;;;;;;17.75;7.65;;;;;;;-148.16;100.00;58328.31;5022763;28;20048;-56
2022/08/25 00:08:59;;;;;;;10.65;6.80;;;;;;;-148.16;100.00;58328.31;5039955;28;20345;-56
2022/08/25 00:11:44;;;;;;;13.38;7.00;;;;;;;-148.16;100.00;58328.31;5071217;28;20049;-55
2022/08/25 00:14:33;;;;;;;14.98;6.70;;;;;;;-148.16;100.00;58328.31;5039092;28;20056;-56
2022/08/25 00:17:18;;;;;;;13.85;7.07;;;;;;;-148.16;100.00;58328.31;5047826;28;20063;-57
2022/08/25 00:20:05;;;;;;;10.70;6.70;;;;;;;-148.16;100.00;58328.31;5040613;28;20048;-55
2022/08/25 00:22:50;;;;;;;10.55;6.35;;;;;;;-148.16;100.00;58328.31;5036843;28;20041;-55
2022/08/25 00:25:34;;;;;;;14.95;6.47;;;;;;;-148.16;100.00;58328.31;5038622;28;20488;-57
2022/08/25 00:28:20;;;;;;;15.45;6.20;;;;;;;-148.16;100.00;58328.31;5034232;28;20049;-56
2022/08/25 00:31:05;;;;;;;10.57;6.53;;;;;;;-148.16;100.00;58328.31;5042925;28;20036;-57
2022/08/25 00:33:51;;;;;;;9.02;5.60;;;;;;;-148.16;100.00;58328.31;5036817;28;20036;-55
2022/08/25 00:36:36;;;;;;;11.20;6.18;;;;;;;-148.16;100.00;58328.31;5034722;28;20056;-55
2022/08/25 00:39:23;;;;;;;12.15;5.90;;;;;;;-148.16;100.00;58328.31;5035205;28;20037;-57
2022/08/25 00:42:08;;;;;;;12.02;6.18;;;;;;;-148.16;100.00;58328.31;5033468;28;20033;-56
2022/08/25 00:44:53;;;;;;;10.55;6.20;;;;;;;-148.16;100.00;58328.31;5050496;28;20056;-57
2022/08/25 00:47:38;;;;;;;10.18;5.55;;;;;;;-148.16;100.00;58328.31;5048697;28;20052;-58
2022/08/25 00:50:24;;;;;;;10.18;5.35;;;;;;;-148.16;100.00;58328.31;5035885;28;20079;-57
2022/08/25 00:53:08;;;;;;;10.27;5.30;;;;;;;-148.16;100.00;58328.31;5046121;28;20037;-56
2022/08/25 00:55:53;;;;;;;12.43;5.60;;;;;;;-148.16;100.00;58328.31;5020273;28;20064;-56
2022/08/25 00:58:39;;;;;;;10.50;5.32;;;;;;;-148.16;100.00;58328.31;5046530;28;20476;-56
2022/08/25 01:01:24;;;;;;;12.23;6.07;;;;;;;-148.16;100.00;58328.31;5047219;28;20072;-54
2022/08/25 01:04:08;;;;;;;9.98;5.65;;;;;;;-148.16;100.00;58328.31;5019448;28;20041;-56
2022/08/25 01:06:54;;;;;;;11.13;6.05;;;;;;;-148.16;100.00;58328.31;5040097;28;20090;-56
2022/08/25 01:09:39;;;;;;;12.05;5.75;;;;;;;-148.16;100.00;58328.31;5034753;28;20049;-57
2022/08/25 01:12:23;;;;;;;11.02;6.72;;;;;;;-148.16;100.00;58328.31;5032427;28;20037;-57
2022/08/25 01:15:11;;;;;;;17.30;6.35;;;;;;;-148.16;100.00;58328.31;5033351;28;20034;-56
2022/08/25 01:17:57;;;;;;;13.27;6.07;;;;;;;-148.16;100.00;58328.31;5046548;28;20048;-56
2022/08/25 01:20:42;;;;;;;11.52;5.97;;;;;;;-148.16;100.00;58328.31;5034128;28;20496;-59
2022/08/25 01:23:27;;;;;;;11.70;6.15;;;;;;;-148.16;100.00;58328.31;5033912;28;20396;-57
2022/08/25 01:26:22;;;;;;;12.50;5.68;;;;;;;-148.16;100.00;58328.31;5032867;28;20037;-55
2022/08/25 01:29:20;;;;;;;12.75;5.35;;;;;;;-148.16;100.00;58328.31;5075916;28;20048;-55
2022/08/25 01:32:07;;;;;;;10.05;5.53;;;;;;;-148.16;100.00;58328.31;5047057;28;20130;-56
2022/08/25 01:34:52;;;;;;;10.13;5.63;;;;;;;-148.16;100.00;58328.31;5033019;28;20129;-53
2022/08/25 01:37:37;;;;;;;12.50;5.20;;;;;;;-148.16;100.00;58328.31;5034027;28;20076;-55
2022/08/25 01:40:21;;;;;;;12.52;5.75;;;;;;;-148.16;100.00;58328.31;5033592;28;20100;-56
2022/08/25 01:43:06;;;;;;;9.30;5.10;;;;;;;-148.16;100.00;58328.31;5060837;28;20048;-57
2022/08/25 01:45:51;;;;;;;7.20;4.50;;;;;;;-148.16;100.00;58328.31;5033653;28;20037;-55
2022/08/25 01:48:35;;;;;;;9.40;5.28;;;;;;;-148.16;100.00;58328.31;5032681;28;20156;-56
2022/08/25 01:51:23;;;;;;;11.02;5.88;;;;;;;-148.16;100.00;58328.31;5039380;28;20048;-57
2022/08/25 01:54:08;;;;;;;8.70;5.18;;;;;;;-148.16;100.00;58328.31;5076330;28;20048;-56
2022/08/25 01:56:53;;;;;;;7.97;4.78;;;;;;;-148.16;100.00;58328.31;5029630;28;20380;-58
2022/08/25 01:59:37;;;;;;;8.15;5.03;;;;;;;-148.16;100.00;58328.31;5051737;28;20116;-54
2022/08/25 02:02:22;;;;;;;8.63;4.68;;;;;;;-148.16;100.00;58328.31;5033213;28;20038;-58
2022/08/25 02:05:09;;;;;;;10.30;5.28;;;;;;;-148.16;100.00;58328.31;5033428;28;20389;-55
2022/08/25 02:07:53;;;;;;;8.85;5.28;;;;;;;-148.16;100.00;58328.31;5035193;28;20487;-57
2022/08/25 02:10:39;;;;;;;10.85;5.30;;;;;;;-148.16;100.00;58328.31;5031840;28;20036;-56
2022/08/25 02:13:24;;;;;;;13.80;5.72;;;;;;;-148.16;100.00;58328.31;5021125;28;20052;-58
2022/08/25 02:16:13;;;;;;;7.47;4.88;;;;;;;-148.16;100.00;58328.31;5044827;28;20051;-57
2022/08/25 02:18:59;;;;;;;7.35;4.82;;;;;;;-148.16;100.00;58328.31;5032090;28;20039;-57
2022/08/25 02:21:44;;;;;;;10.70;5.00;;;;;;;-148.16;100.00;58328.31;5032949;28;20111;-57
2022/08/25 02:24:29;;;;;;;10.95;4.43;;;;;;;-148.16;100.00;58328.31;5036147;28;20053;-57
2022/08/25 02:27:14;;;;;;;10.30;4.85;;;;;;;-148.16;100.00;58328.31;5040626;28;20037;-55
2022/08/25 02:29:59;;;;;;;9.45;4.90;;;;;;;-148.16;100.00;58328.31;5031813;28;20115;-56
2022/08/25 02:32:43;;;;;;;7.07;4.45;;;;;;;-148.16;100.00;58328.31;5019657;28;20136;-55
2022/08/25 02:35:29;;;;;;;7.68;4.30;;;;;;;-148.16;100.00;58328.31;5041461;28;20037;-56
2022/08/25 02:38:13;;;;;;;10.63;4.78;;;;;;;-148.16;100.00;58328.31;5035858;28;20099;-55
2022/08/25 02:41:00;;;;;;;8.40;4.68;;;;;;;-148.16;100.00;58328.31;5032672;28;20476;-57
2022/08/25 02:43:47;;;;;;;10.48;4.82;;;;;;;-148.16;100.00;58328.31;5032324;28;20099;-57
2022/08/25 02:46:32;;;;;;;7.78;4.72;;;;;;;-148.16;100.00;58328.31;5032414;28;20042;-58
2022/08/25 02:49:17;;;;;;;10.60;5.03;;;;;;;-148.16;100.00;58328.31;5032351;28;20859;-56
2022/08/25 02:52:02;;;;;;;10.10;4.13;;;;;;;-148.16;100.00;58328.31;5044052;28;20049;-56
2022/08/25 02:54:47;;;;;;;10.00;5.07;;;;;;;-148.16;100.00;58328.31;5032357;28;20041;-55
2022/08/25 02:57:31;;;;;;;6.90;4.72;;;;;;;-148.16;100.00;58328.31;5058874;28;20096;-56
2022/08/25 03:00:16;;;;;;;9.55;4.55;;;;;;;-148.16;100.00;58328.31;5032366;28;20048;-57
2022/08/25 03:03:01;;;;;;;6.80;4.15;;;;;;;-148.16;100.00;58328.31;5052107;28;20029;-56
2022/08/25 03:05:47;;;;;;;7.50;4.15;;;;;;;-148.16;100.00;58328.31;5032048;28;20104;-55
2022/08/25 03:08:32;;;;;;;6.75;4.13;;;;;;;-148.16;100.00;58328.31;5041697;28;20064;-55
2022/08/25 03:11:16;;;;;;;8.88;4.00;;;;;;;-148.16;100.00;58328.31;5032267;28;20112;-55
2022/08/25 03:14:01;;;;;;;7.95;3.97;;;;;;;-148.16;100.00;58328.31;5038320;28;20492;-57
2022/08/25 03:16:46;;;;;;;5.72;3.67;;;;;;;-148.16;100.00;58328.31;5036175;28;20056;-60
2022/08/25 03:19:31;;;;;;;8.30;4.28;;;;;;;-148.16;100.00;58328.31;5042129;28;20037;-56
2022/08/25 03:22:17;;;;;;;7.53;3.75;;;;;;;-148.16;100.00;58328.31;5038074;28;20048;-58
2022/08/25 03:28:07;;;;;;;11.52;4.40;;;;;;;-148.16;100.00;58328.31;5033785;28;20451;-56
2022/08/25 03:30:52;;;;;;;8.52;4.18;;;;;;;-148.16;100.00;58328.31;5031458;28;20408;-56
2022/08/25 03:33:37;;;;;;;7.68;4.13;;;;;;;-148.16;100.00;58328.31;5033235;28;20128;-56
2022/08/25 03:36:22;;;;;;;9.10;4.15;;;;;;;-148.16;100.00;58328.31;5038485;28;20037;-54
2022/08/25 03:39:08;;;;;;;9.63;3.85;;;;;;;-148.16;100.00;58328.31;5030997;28;20049;-57
2022/08/25 03:41:52;;;;;;;9.70;3.92;;;;;;;-148.16;100.00;58328.31;5031604;28;20041;-56
2022/08/25 03:44:37;;;;;;;6.32;3.95;;;;;;;-148.16;100.00;58328.31;5030490;28;20095;-55
2022/08/25 03:47:25;;;;;;;9.00;4.53;;;;;;;-148.16;100.00;58328.31;5044766;28;20103;-55
2022/08/25 03:50:10;;;;;;;8.02;4.63;;;;;;;-148.16;100.00;58328.31;5031191;28;20057;-55
2022/08/25 03:52:56;;;;;;;10.77;4.13;;;;;;;-148.16;100.00;58328.31;5030622;28;20500;-56
2022/08/25 03:55:41;;;;;;;9.57;4.57;;;;;;;-148.16;100.00;58328.31;5030021;28;20115;-57
2022/08/25 03:58:26;;;;;;;11.55;4.03;;;;;;;-148.16;100.00;58328.31;5030775;28;20041;-57
2022/08/25 04:01:24;;;;;;;6.82;4.13;;;;;;;-148.16;100.00;58328.31;5063876;28;20053;-54
2022/08/25 04:04:13;;;;;;;10.57;4.25;;;;;;;-148.16;100.00;58328.31;5030571;28;20042;-56
2022/08/25 04:06:58;;;;;;;8.63;4.35;;;;;;;-148.16;100.00;58328.31;5031176;28;20500;-56
2022/08/25 04:09:43;;;;;;;8.65;4.32;;;;;;;-148.16;100.00;58328.31;5058236;28;20046;-57
2022/08/25 04:12:28;;;;;;;7.78;3.80;;;;;;;-148.16;100.00;58328.31;5030143;28;20366;-55
2022/08/25 04:15:13;;;;;;;6.28;3.47;;;;;;;-148.16;100.00;58328.31;5035274;28;20037;-56
2022/08/25 04:17:57;;;;;;;6.70;3.40;;;;;;;-148.16;100.00;58328.31;5043740;28;20040;-53
2022/08/25 04:20:43;;;;;;;7.63;4.13;;;;;;;-148.16;100.00;58328.31;5032089;28;20046;-57
2022/08/25 04:23:30;;;;;;;8.02;4.18;;;;;;;-148.16;100.00;58328.31;5067116;28;20693;-55
2022/08/25 04:26:21;;;;;;;5.40;3.55;;;;;;;-148.16;100.00;58328.31;5041775;28;20045;-58
2022/08/25 04:29:08;;;;;;;6.13;3.25;;;;;;;-148.16;100.00;58328.31;5040875;28;20033;-54
2022/08/25 04:31:56;;;;;;;7.00;3.88;;;;;;;-148.16;100.00;58328.31;5028357;28;20037;-57
2022/08/25 04:34:44;;;;;;;8.25;4.15;;;;;;;-148.16;100.00;58328.31;5044503;28;20038;-59
2022/08/25 04:37:29;;;;;;;7.65;3.55;;;;;;;-148.16;100.00;58328.31;5018704;28;20044;-59
2022/08/25 04:40:14;;;;;;;9.75;3.92;;;;;;;-148.16;100.00;58328.31;5041947;28;20084;-56
2022/08/25 04:42:58;;;;;;;10.82;5.43;;;;;;;-148.16;100.00;58328.31;5030373;28;20033;-57
2022/08/25 04:45:43;;;;;;;7.78;3.65;;;;;;;-148.16;100.00;58328.31;5041687;28;20071;-58
2022/08/25 04:48:28;;;;;;;13.07;4.47;;;;;;;-148.16;100.00;58328.31;5024942;28;20059;-58
2022/08/25 04:51:16;;;;;;;9.32;3.72;;;;;;;-148.16;100.00;58328.31;5035989;28;20066;-55
2022/08/25 04:54:04;;;;;;;11.77;5.10;;;;;;;-148.16;100.00;58328.31;5030336;28;20095;-59
2022/08/25 04:56:50;;;;;;;14.13;6.78;;;;;;;-148.16;100.00;58328.31;5030666;28;20164;-55
2022/08/25 04:59:35;;;;;;;14.20;5.03;;;;;;;-148.16;100.00;58328.31;5020592;28;20037;-56
2022/08/25 05:02:21;;;;;;;12.93;5.78;;;;;;;-148.16;100.00;58328.31;5029292;28;20061;-57
2022/08/25 05:05:06;;;;;;;13.63;5.05;;;;;;;-148.16;100.00;58328.31;5019586;28;20724;-62
2022/08/25 05:07:50;;;;;;;12.77;4.95;;;;;;;-148.16;100.00;58328.31;5040190;28;20071;-67
2022/08/25 05:10:39;;;;;;;15.90;5.82;;;;;;;-148.16;100.00;58328.31;5049126;28;20048;-67
2022/08/25 05:13:26;;;;;;;12.43;5.50;;;;;;;-148.16;100.00;58328.31;5038757;28;20052;-66
2022/08/25 05:16:12;;;;;;;10.85;4.90;;;;;;;-148.16;100.00;58328.31;5038841;28;20032;-67
2022/08/25 05:18:57;;;;;;;10.30;4.60;;;;;;;-148.16;100.00;58328.31;5037734;28;20037;-66
2022/08/25 05:21:42;;;;;;;12.48;5.40;;;;;;;-148.16;100.00;58328.31;5042269;28;20388;-67
2022/08/25 05:24:28;;;;;;;10.80;5.07;;;;;;;-148.16;100.00;58328.31;5034196;28;20079;-58
2022/08/25 05:27:13;;;;;;;11.13;5.40;;;;;;;-148.16;100.00;58328.31;5046722;28;20060;-64
2022/08/25 05:30:00;;;;;;;17.13;5.93;;;;;;;-148.16;100.00;58328.31;5033762;28;20053;-65
2022/08/25 05:32:44;;;;;;;14.98;5.57;;;;;;;-148.16;100.00;58328.31;5032804;28;20037;-65
2022/08/25 05:35:29;;;;;;;13.43;5.93;;;;;;;-148.16;100.00;58328.31;5039048;28;20115;-65
2022/08/25 05:38:14;;;;;;;18.27;7.32;;;;;;;-148.16;100.00;58328.31;5033616;28;20033;-66
2022/08/25 05:41:01;;;;;;;13.35;5.88;;;;;;;-148.16;100.00;58328.31;5046802;28;20037;-67
2022/08/25 05:43:48;;;;;;;13.55;6.35;;;;;;;-148.16;100.00;58328.31;5057218;28;20053;-63
2022/08/25 05:46:32;;;;;;;16.02;6.78;;;;;;;-148.16;100.00;58328.31;5044635;28;20029;-65
2022/08/25 05:49:17;;;;;;;16.17;7.55;;;;;;;-148.16;100.00;58328.31;5031628;28;20041;-63
2022/08/25 05:52:02;;;;;;;15.15;6.20;;;;;;;-148.16;100.00;58328.31;5031250;28;20044;-66
2022/08/25 05:54:47;;;;;;;10.95;5.68;;;;;;;-148.16;100.00;58328.31;5035531;28;20034;-67
2022/08/25 05:57:33;;;;;;;14.18;5.93;;;;;;;-148.16;100.00;58328.31;5033623;28;20354;-66
2022/08/25 06:00:18;;;;;;;13.05;5.32;;;;;;;-148.16;100.00;58328.31;5069587;28;20033;-65
2022/08/25 06:03:03;;;;;;;11.05;5.30;;;;;;;-148.16;100.00;58328.31;5040368;28;20037;-62
2022/08/25 06:05:48;;;;;;;14.63;5.90;;;;;;;-148.16;100.00;58328.31;5039545;28;20087;-61
2022/08/25 06:08:32;;;;;;;16.17;6.57;;;;;;;-148.16;100.00;58328.31;5034334;28;20453;-63
2022/08/25 06:11:18;;;;;;;17.15;6.07;;;;;;;-148.16;100.00;58328.31;5032617;28;20041;-63
2022/08/25 06:14:03;;;;;;;15.32;5.55;;;;;;;-148.16;100.00;58328.31;5031878;28;20116;-63
2022/08/25 06:16:50;;;;;;;14.38;5.25;;;;;;;-148.16;100.00;58328.31;5030884;28;20057;-65
2022/08/25 06:19:35;;;;;;;16.02;5.85;;;;;;;-148.16;100.00;58328.31;5028963;28;20067;-64
2022/08/25 06:22:25;;;;;;;17.77;6.43;;;;;;;-148.16;100.00;58328.31;5030186;28;20053;-62
2022/08/25 06:25:17;;;;;;;17.25;6.07;;;;;;;-148.16;100.00;58328.31;5036279;28;20112;-63
2022/08/25 06:28:02;;;;;;;23.00;6.47;;;;;;;-148.16;100.00;58328.31;5035552;28;20083;-62
2022/08/25 06:30:47;;;;;;;15.38;6.13;;;;;;;-148.16;100.00;58328.31;5031320;28;20033;-64
2022/08/25 06:33:31;;;;;;;16.55;5.75;;;;;;;-148.16;100.00;58328.31;5038324;28;20037;-63
2022/08/25 06:36:18;;;;;;;15.73;6.38;;;;;;;-148.16;100.00;58328.31;5031200;28;20065;-63
2022/08/25 06:39:03;;;;;;;17.73;6.90;;;;;;;-148.16;100.00;58328.31;5034256;28;20033;-64
2022/08/25 06:41:51;;;;;;;26.13;6.25;;;;;;;-148.16;100.00;58328.31;5031650;28;20053;-64
2022/08/25 06:44:37;;;;;;;21.48;5.80;;;;;;;-148.16;100.00;58328.31;5031947;28;20065;-65
2022/08/25 06:47:21;;;;;;;14.40;6.10;;;;;;;-148.16;100.00;58328.31;5033159;28;20029;-63
2022/08/25 06:50:06;;;;;;;13.23;5.90;;;;;;;-148.16;100.00;58328.31;5031047;28;20041;-62
2022/08/25 06:52:51;;;;;;;16.83;6.05;;;;;;;-148.16;100.00;58328.31;5035566;28;20049;-63
2022/08/25 06:55:36;;;;;;;14.40;5.57;;;;;;;-148.16;100.00;58328.31;5035253;28;20042;-64
2022/08/25 06:58:20;;;;;;;16.45;5.80;;;;;;;-148.16;100.00;58328.31;5032311;28;20041;-63
2022/08/25 07:01:11;;;;;;;13.90;5.57;;;;;;;-148.16;100.00;58328.31;5032723;28;20049;-65
2022/08/25 07:03:59;;;;;;;16.58;5.68;;;;;;;-148.16;100.00;58328.31;5031664;28;20045;-62
2022/08/25 07:06:43;;;;;;;14.25;5.07;;;;;;;-148.16;100.00;58328.31;5030465;28;20045;-63
2022/08/25 07:09:28;;;;;;;11.23;4.43;;;;;;;-148.16;100.00;58328.31;5060880;28;20228;-63
2022/08/25 07:12:13;;;;;;;15.18;5.20;;;;;;;-148.16;100.00;58328.31;5032321;28;20033;-63
2022/08/25 07:14:58;;;;;;;12.00;5.22;;;;;;;-148.16;100.00;58328.31;5031848;28;20090;-63
2022/08/25 07:17:42;;;;;;;12.27;4.43;;;;;;;-148.16;100.00;58328.31;5030560;28;20064;-64
2022/08/25 07:20:30;;;;;;;14.45;5.22;;;;;;;-148.16;100.00;58328.31;5030825;28;20049;-62
2022/08/25 07:23:15;;;;;;;15.98;6.88;;;;;;;-148.16;100.00;58328.31;5031778;28;20486;-64
2022/08/25 07:26:12;;;;;;;15.20;6.53;;;;;;;-148.16;100.00;58328.31;5035333;28;20041;-63
2022/08/25 07:28:58;;;;;;;16.98;5.82;;;;;;;-148.16;100.00;58328.31;5058785;28;20034;-64
2022/08/25 07:31:42;;;;;;;14.95;4.78;;;;;;;-148.16;100.00;58328.31;5056140;28;20106;-64
2022/08/25 07:37:30;;;;;;;13.20;4.35;;;;;;;-148.16;100.00;58328.31;5047237;28;20047;-66
2022/08/25 07:40:21;;;;;;;10.45;3.78;;;;;;;-148.16;100.00;58328.31;5031759;28;20048;-65
2022/08/25 07:43:09;;;;;;;22.65;4.68;;;;;;;-148.16;100.00;58328.31;5031459;28;20041;-63
2022/08/25 07:45:55;;;;;;;11.15;4.05;;;;;;;-148.16;100.00;58328.31;5031268;28;20095;-62
2022/08/25 07:48:40;;;;;;;13.50;4.00;;;;;;;-148.16;100.00;58328.31;5028186;28;20048;-63
2022/08/25 07:51:25;;;;;;;10.70;4.30;;;;;;;-148.16;100.00;58328.31;5039571;28;20098;-62
2022/08/25 07:54:10;;;;;;;6.80;4.10;;;;;;;-148.16;100.00;58328.31;5031493;28;20045;-63
2022/08/25 07:56:55;;;;;;;9.15;3.60;;;;;;;-148.16;100.00;58328.31;5030785;28;20037;-65
2022/08/25 07:59:41;;;;;;;11.82;4.07;;;;;;;-148.16;100.00;58328.31;5032916;28;20366;-66
2022/08/25 08:02:26;;;;;;;11.43;4.38;;;;;;;-148.16;100.00;58328.31;5046385;28;20041;-66
2022/08/25 08:05:12;;;;;;;11.63;4.47;;;;;;;-148.16;100.00;58328.31;5032062;28;20041;-64
2022/08/25 08:07:58;;;;;;;14.88;4.40;;;;;;;-148.16;100.00;58328.31;5032527;28;20120;-66
2022/08/25 08:10:44;;;;;;;12.68;3.85;;;;;;;-148.16;100.00;58328.31;5031751;28;20056;-65
2022/08/25 08:13:29;;;;;;;9.13;4.00;;;;;;;-148.16;100.00;58328.31;5031692;28;20428;-66
2022/08/25 08:16:15;;;;;;;10.68;4.15;;;;;;;-148.16;100.00;58328.31;5031568;28;20177;-67
2022/08/25 08:19:01;;;;;;;11.05;4.78;;;;;;;-148.16;100.00;58328.31;5030227;28;20477;-68
2022/08/25 08:21:48;;;;;;;15.43;4.65;;;;;;;-148.16;100.00;58328.31;5033144;28;21327;-71
2022/08/25 08:24:38;;;;;;;11.20;4.22;;;;;;;-148.16;100.00;58328.31;5027848;28;20049;-72
2022/08/25 08:27:24;;;;;;;9.50;3.95;;;;;;;-148.16;100.00;58328.31;5035034;28;20041;-70
2022/08/25 08:30:09;;;;;;;13.20;3.47;;;;;;;-148.16;100.00;58328.31;5033369;28;20488;-70
2022/08/25 08:32:55;;;;;;;12.63;3.78;;;;;;;-148.16;100.00;58328.31;5057663;28;20107;-69
2022/08/25 08:35:40;;;;;;;13.90;4.47;;;;;;;-148.16;100.00;58328.31;5037558;28;20044;-72
2022/08/25 08:38:25;;;;;;;8.15;3.67;;;;;;;-148.16;100.00;58328.31;5043950;28;20033;-71
2022/08/25 08:44:49;;;;;;;11.02;3.70;;;;;;;-148.16;100.00;58328.31;5016629;28;20046;-71
2022/08/25 08:47:47;;;;;;;12.15;3.70;;;;;;;-148.16;100.00;58328.31;5012301;28;20361;-68
2022/08/25 08:50:36;;;;;;;10.23;3.80;;;;;;;-148.16;100.00;58328.31;5034580;28;20069;-68
2022/08/25 08:53:28;;;;;;;10.18;3.75;;;;;;;-148.16;100.00;58328.31;5041848;28;20461;-68
2022/08/25 08:56:37;;;;;;;8.32;3.40;;;;;;;-148.16;100.00;58328.31;5034823;28;20042;-68
2022/08/25 08:59:28;;;;;;;11.20;3.13;;;;;;;-148.16;100.00;58328.31;5033568;28;20044;-67
2022/08/25 09:02:25;;;;;;;7.95;3.65;;;;;;;-148.16;100.00;58328.31;5036685;28;20053;-65
2022/08/25 09:05:13;;;;;;;8.23;3.40;;;;;;;-148.16;100.00;58328.31;5033164;28;20392;-66
2022/08/25 09:08:03;;;;;;;9.98;4.03;;;;;;;-148.16;100.00;58328.31;5033965;28;20040;-66
2022/08/25 09:11:02;;;;;;;13.93;4.63;;;;;;;-148.16;100.00;58328.31;5033023;28;20041;-66
2022/08/25 09:14:17;;;;;;;7.68;3.63;;;;;;;-148.16;100.00;58328.31;5032210;28;20059;-65
2022/08/25 09:17:18;;;;;;;9.48;3.65;;;;;;;-148.16;100.00;58328.31;5034542;28;20041;-66
2022/08/25 09:20:33;;;;;;;6.38;3.60;;;;;;;-148.16;100.00;58328.31;5033599;28;20113;-66
2022/08/25 09:23:43;;;;;;;6.85;3.90;;;;;;;-148.16;100.00;58328.31;5045746;28;20064;-64
2022/08/25 09:26:42;;;;;;;21.20;5.68;;;;;;;-148.16;100.00;58328.31;5033629;28;20049;-63
2022/08/25 09:29:45;;;;;;;9.55;4.18;;;;;;;-148.16;100.00;58328.31;5033937;28;20046;-66
2022/08/25 09:32:39;;;;;;;8.82;3.83;;;;;;;-148.16;100.00;58328.31;5039492;28;20063;-66
2022/08/25 09:35:27;;;;;;;7.53;4.22;;;;;;;-148.16;100.00;58328.31;5035240;28;20049;-64
2022/08/25 09:38:13;;;;;;;8.05;3.80;;;;;;;-148.16;100.00;58328.31;5046887;28;20037;-65
2022/08/25 09:40:59;;;;;;;7.82;3.90;;;;;;;-148.16;100.00;58328.31;5032964;28;20034;-65
2022/08/25 09:43:53;;;;;;;8.60;4.15;;;;;;;-148.16;100.00;58328.31;5034165;28;20069;-66
2022/08/25 09:46:38;;;;;;;6.55;3.55;;;;;;;-148.16;100.00;58328.31;5032708;28;20040;-66
2022/08/25 09:49:32;;;;;;;10.10;3.95;;;;;;;-148.16;100.00;58328.31;5046386;28;20124;-70
2022/08/25 09:52:36;;;;;;;11.00;3.67;;;;;;;-148.16;100.00;58328.31;5033510;28;20045;-72
2022/08/25 09:55:30;;;;;;;10.23;4.65;;;;;;;-148.16;100.00;58328.31;5037085;28;20040;-71
2022/08/25 09:58:22;;;;;;;6.93;4.10;;;;;;;-148.16;100.00;58328.31;5060851;28;20152;-69
2022/08/25 10:01:17;;;;;;;11.05;4.70;;;;;;;-148.16;100.00;58328.31;5046922;28;20060;-65
2022/08/25 10:04:05;;;;;;;8.52;4.10;;;;;;;-148.16;100.00;58328.31;5038623;28;20130;-64
2022/08/25 10:06:50;;;;;;;8.90;3.90;;;;;;;-148.16;100.00;58328.31;5055485;28;20053;-67
2022/08/25 10:09:42;;;;;;;10.27;5.60;;;;;;;-148.16;100.00;58328.31;5040230;28;20416;-65
2022/08/25 10:12:38;;;;;;;8.00;4.60;;;;;;;-148.16;100.00;58328.31;5033247;28;20092;-66
2022/08/25 10:15:35;;;;;;;10.27;4.88;;;;;;;-148.16;100.00;58328.31;5060648;28;20059;-66
2022/08/25 10:18:25;;;;;;;10.70;4.53;;;;;;;-148.16;100.00;58328.31;5036676;28;20048;-66
2022/08/25 10:21:14;;;;;;;8.80;4.20;;;;;;;-148.16;100.00;58328.31;5039087;28;20477;-69
2022/08/25 10:24:01;;;;;;;8.18;4.45;;;;;;;-148.16;100.00;58328.31;5034934;28;20037;-68
2022/08/25 10:27:16;;;;;;;10.85;4.28;;;;;;;-148.16;100.00;58328.31;5036483;28;20088;-66
2022/08/25 10:30:03;;;;;;;8.52;3.80;;;;;;;-148.16;100.00;58328.31;5034488;28;20034;-69
2022/08/25 10:33:19;;;;;;;9.30;4.22;;;;;;;-148.16;100.00;58328.31;5037586;28;20464;-66
2022/08/25 10:36:12;;;;;;;8.82;4.18;;;;;;;-148.16;100.00;58328.31;5035439;28;20429;-68
2022/08/25 10:38:59;;;;;;;6.47;3.75;;;;;;;-148.16;100.00;58328.31;5049330;28;20091;-69
2022/08/25 10:42:01;;;;;;;7.55;3.45;;;;;;;-148.16;100.00;58328.31;5035303;28;20392;-69
2022/08/25 10:48:36;;;;;;;8.05;3.70;;;;;;;-148.16;100.00;58328.31;5032567;28;20045;-68
2022/08/25 10:51:21;;;;;;;6.65;3.42;;;;;;;-148.16;100.00;58328.31;5040281;28;20064;-66
2022/08/25 10:54:44;;;;;;;6.00;3.30;;;;;;;-148.16;100.00;58328.31;5034555;28;20041;-70
2022/08/25 10:57:55;;;;;;;11.05;3.20;;;;;;;-148.16;100.00;58328.31;5059359;28;20358;-65
2022/08/25 11:00:47;;;;;;;6.82;3.90;;;;;;;-148.16;100.00;58328.31;5032314;28;20044;-66
2022/08/25 11:03:45;;;;;;;4.65;3.00;;;;;;;-148.16;100.00;58328.31;5032183;28;20443;-66
2022/08/25 11:06:42;;;;;;;7.00;3.03;;;;;;;-148.16;100.00;58328.31;5058750;28;20042;-66
2022/08/25 11:09:34;;;;;;;7.15;4.03;;;;;;;-148.16;100.00;58328.31;5032308;28;20473;-70
2022/08/25 11:12:24;;;;;;;5.32;2.75;;;;;;;-148.16;100.00;58328.31;5032118;28;20086;-67
2022/08/25 11:15:26;;;;;;;7.70;2.95;;;;;;;-148.16;100.00;58328.31;5030980;28;20715;-67
2022/08/25 11:18:13;;;;;;;6.85;2.90;;;;;;;-148.16;100.00;58328.31;5031060;28;20037;-70
2022/08/25 11:21:30;;;;;;;4.68;2.50;;;;;;;-148.16;100.00;58328.31;5017436;28;20040;-69
2022/08/25 11:24:28;;;;;;;5.43;3.13;;;;;;;-148.16;100.00;58328.31;5031980;28;20198;-68
2022/08/25 11:27:21;;;;;;;8.45;2.75;;;;;;;-148.16;100.00;58328.31;5044394;28;20081;-67
2022/08/25 11:30:10;;;;;;;6.43;3.08;;;;;;;-148.16;100.00;58328.31;5034989;28;20165;-67
2022/08/25 11:32:55;;;;;;;6.80;3.70;;;;;;;-148.16;100.00;58328.31;5048517;28;20491;-68
2022/08/25 11:35:58;;;;;;;4.80;2.92;;;;;;;-148.16;100.00;58328.31;5038175;28;20111;-68
2022/08/25 11:39:15;;;;;;;9.10;4.03;;;;;;;-148.16;100.00;58328.31;5032329;28;20033;-68
2022/08/25 11:42:32;;;;;;;5.05;3.55;;;;;;;-148.16;100.00;58328.31;5038393;28;20056;-67
2022/08/25 11:45:38;;;;;;;7.38;3.90;;;;;;;-148.16;100.00;58328.31;5030565;28;20053;-68
2022/08/25 11:48:44;;;;;;;7.90;4.15;;;;;;;-148.16;100.00;58328.31;5031830;28;20041;-68
2022/08/25 11:51:39;;;;;;;9.48;4.40;;;;;;;-148.16;100.00;58328.31;5032745;28;20340;-66
2022/08/25 11:54:44;;;;;;;9.90;4.68;;;;;;;-148.16;100.00;58328.31;5047778;28;20778;-67
2022/08/25 11:57:30;;;;;;;5.55;4.55;;;;;;;-148.16;100.00;58328.31;5040064;28;20041;-67
2022/08/25 12:00:18;;;;;;;6.22;3.80;;;;;;;-148.16;100.00;58328.31;5044698;28;20153;-67
2022/08/25 12:03:41;;;;;;;6.05;3.97;;;;;;;-148.16;100.00;58328.31;5045702;28;20060;-69
2022/08/25 12:06:33;;;;;;;8.68;3.92;;;;;;;-148.16;100.00;58328.31;5031747;28;20507;-67
2022/08/25 12:09:19;;;;;;;9.48;4.10;;;;;;;-148.16;100.00;58328.31;5031899;28;20038;-69
2022/08/25 12:12:36;;;;;;;8.32;3.45;;;;;;;-148.16;100.00;58328.31;5030660;28;20038;-70
2022/08/25 12:15:28;;;;;;;6.20;3.85;;;;;;;-148.16;100.00;58328.31;5032821;28;20069;-69
2022/08/25 12:18:39;;;;;;;7.82;3.67;;;;;;;-148.16;100.00;58328.31;5039710;28;20033;-67
2022/08/25 12:21:32;;;;;;;7.32;3.58;;;;;;;-148.16;100.00;58328.31;5035790;28;20041;-65
2022/08/25 12:24:46;;;;;;;13.38;5.95;;;;;;;-148.16;100.00;58328.31;5034436;28;20060;-67
2022/08/25 12:27:37;;;;;;;7.30;3.08;;;;;;;-148.16;100.00;58328.31;5035284;28;20560;-66
2022/08/25 12:30:27;;;;;;;6.90;2.58;;;;;;;-148.16;100.00;58328.31;5034779;28;20140;-65
2022/08/25 12:33:24;;;;;;;4.82;2.17;;;;;;;-148.16;100.00;58328.31;5034158;28;20492;-65
2022/08/25 12:36:24;;;;;;;5.32;2.75;;;;;;;-148.16;100.00;58328.31;5035209;28;20033;-67
2022/08/25 12:39:20;;;;;;;3.90;2.38;;;;;;;-148.16;100.00;58328.31;5035337;28;20041;-66
2022/08/25 12:42:21;;;;;;;5.65;2.60;;;;;;;-148.16;100.00;58328.31;5047990;28;20419;-65
2022/08/25 12:45:13;;;;;;;3.80;2.10;;;;;;;-148.16;100.00;58328.31;5047845;28;20461;-66
2022/08/25 12:48:26;;;;;;;5.10;2.03;;;;;;;-148.16;100.00;58328.31;5047662;28;20048;-65
2022/08/25 12:51:17;;;;;;;3.05;2.13;;;;;;;-148.16;100.00;58328.31;5039369;28;20111;-66
2022/08/25 12:54:16;;;;;;;;;;;;;;;-148.16;100.00;58328.31;5036240;28;20038;-67
2022/08/25 12:57:14;;;;;;;7.85;2.42;;;;;;;-148.16;100.00;58328.31;5033562;28;19967;-66